Time;durP1;ratioP1;P1;durP2;ratioP2;P2;SDS_P1;SDS_P2;PMS_P1;PMS_P2;Temp;Humidity;BMP_temperature;BMP_pressure;BME280_temperature;BME280_humidity;BME280_pressure;Samples;Min_cycle;Max_cycle;Signal;HPM_P1;HPM_P2
2022/08/31 00:04:01;;;;;;;6.97;4.80;;;;;;;19.01;98.76;100879.41;8280566;28;20033;-48
2022/08/31 00:08:02;;;;;;;9.52;4.93;;;;;;;18.94;98.01;100873.81;8260294;28;20037;-50
2022/08/31 00:12:03;;;;;;;9.65;5.28;;;;;;;18.90;99.50;100877.97;8256594;28;20038;-48
2022/08/31 00:16:03;;;;;;;6.80;4.93;;;;;;;18.99;98.27;100876.88;8265583;28;20033;-47
2022/08/31 00:20:06;;;;;;;9.00;5.28;;;;;;;18.98;98.46;100872.44;8257864;28;20092;-50
2022/08/31 00:24:07;;;;;;;5.20;4.70;;;;;;;19.14;97.14;100875.00;8263494;28;20095;-49
2022/08/31 00:28:09;;;;;;;6.93;5.05;;;;;;;19.15;95.94;100873.09;8267656;28;20042;-49
2022/08/31 00:32:10;;;;;;;11.10;4.85;;;;;;;19.23;95.04;100868.41;8256493;28;20157;-47
2022/08/31 00:36:12;;;;;;;7.30;5.10;;;;;;;19.26;95.86;100875.38;8260764;28;20046;-48
2022/08/31 00:40:13;;;;;;;7.65;4.78;;;;;;;19.17;96.11;100882.00;8273760;28;20056;-47
2022/08/31 00:44:13;;;;;;;8.75;5.00;;;;;;;19.24;94.99;100881.06;8267079;28;20081;-49
2022/08/31 00:48:13;;;;;;;5.93;4.70;;;;;;;19.29;95.07;100886.88;8268453;28;20381;-47
2022/08/31 00:52:20;;;;;;;8.37;5.30;;;;;;;19.38;96.83;100882.16;8255976;28;20285;-50
2022/08/31 00:56:21;;;;;;;7.38;5.35;;;;;;;19.16;98.75;100886.59;8267853;28;20846;-47
2022/08/31 01:00:25;;;;;;;11.30;5.75;;;;;;;19.01;99.27;100887.63;8259565;28;20042;-47
2022/08/31 01:04:25;;;;;;;9.25;5.97;;;;;;;19.05;99.15;100881.59;8254146;28;20790;-47
2022/08/31 01:08:26;;;;;;;7.90;5.60;;;;;;;19.17;96.20;100890.22;8253101;28;20061;-49
2022/08/31 01:12:27;;;;;;;7.43;4.82;;;;;;;19.29;93.93;100900.59;8256560;28;20049;-48
2022/08/31 01:16:35;;;;;;;9.13;6.15;;;;;;;19.22;100.00;100906.97;8254479;28;20038;-48
2022/08/31 01:21:07;;;;;;;9.48;6.60;;;;;;;19.10;100.00;100901.09;8266184;28;20351;-49
2022/08/31 01:25:07;;;;;;;9.45;6.63;;;;;;;19.11;100.00;100902.78;8280889;28;20761;-48
2022/08/31 01:29:08;;;;;;;6.88;6.18;;;;;;;18.99;100.00;100906.16;8271865;28;20414;-49
2022/08/31 01:33:10;;;;;;;9.55;6.40;;;;;;;18.92;100.00;100908.78;8255810;28;21266;-51
2022/08/31 01:37:11;;;;;;;6.07;5.25;;;;;;;18.93;100.00;100905.00;8252613;28;20440;-51
2022/08/31 01:41:12;;;;;;;5.88;4.88;;;;;;;19.00;99.17;100899.66;8278311;28;20440;-50
2022/08/31 01:45:12;;;;;;;6.47;5.07;;;;;;;18.96;98.67;100893.69;8278459;28;20130;-47
2022/08/31 01:49:14;;;;;;;10.93;5.60;;;;;;;18.87;100.00;100894.78;8267707;28;20046;-50
2022/08/31 01:53:15;;;;;;;8.70;5.30;;;;;;;18.77;98.62;100899.69;8254351;28;20451;-48
2022/08/31 01:57:15;;;;;;;9.75;5.22;;;;;;;18.71;99.83;100905.03;8282895;28;20038;-50
2022/08/31 02:01:16;;;;;;;8.93;4.88;;;;;;;18.61;100.00;100905.28;8264514;28;20050;-50
2022/08/31 02:05:17;;;;;;;12.85;5.70;;;;;;;18.45;100.00;100899.91;8267384;28;20042;-48
2022/08/31 02:09:18;;;;;;;7.85;6.03;;;;;;;18.34;100.00;100914.00;8291543;28;20152;-52
2022/08/31 02:13:19;;;;;;;8.07;6.30;;;;;;;18.29;100.00;100921.91;8292334;28;20202;-46
2022/08/31 02:17:19;;;;;;;14.25;7.35;;;;;;;18.28;100.00;100925.66;8282149;28;20180;-46
2022/08/31 02:21:19;;;;;;;10.50;7.80;;;;;;;18.29;100.00;100932.84;8262317;28;20045;-46
2022/08/31 02:25:20;;;;;;;18.13;7.72;;;;;;;18.26;100.00;100938.69;8260333;28;20053;-46
2022/08/31 02:29:21;;;;;;;8.75;6.30;;;;;;;18.29;100.00;100930.09;8263588;28;20050;-47
2022/08/31 02:33:23;;;;;;;9.40;6.97;;;;;;;18.27;100.00;100939.53;8260332;28;20406;-46
2022/08/31 02:37:24;;;;;;;10.90;7.82;;;;;;;18.18;100.00;100946.94;8259628;28;20050;-47
2022/08/31 02:41:24;;;;;;;12.80;8.07;;;;;;;18.05;100.00;100956.75;8284381;28;20507;-47
2022/08/31 02:45:25;;;;;;;8.73;6.93;;;;;;;18.05;100.00;100963.06;8275385;28;20048;-49
2022/08/31 02:49:26;;;;;;;11.20;7.55;;;;;;;18.00;100.00;100965.50;8281839;28;20059;-46
2022/08/31 02:53:26;;;;;;;8.38;7.43;;;;;;;17.97;100.00;100960.38;8290314;28;20585;-47
2022/08/31 02:57:27;;;;;;;11.35;7.05;;;;;;;18.09;100.00;100969.91;8291267;28;20038;-46
2022/08/31 03:01:27;;;;;;;11.45;6.65;;;;;;;18.14;100.00;100967.47;8261344;28;20043;-47
2022/08/31 03:05:28;;;;;;;14.23;7.20;;;;;;;18.17;100.00;100972.59;8258320;28;20046;-47
2022/08/31 03:09:30;;;;;;;9.70;7.35;;;;;;;18.12;100.00;100964.09;8262857;28;20508;-47
2022/08/31 03:13:31;;;;;;;20.25;8.25;;;;;;;18.08;100.00;100968.19;8285801;28;20129;-46
2022/08/31 03:17:32;;;;;;;15.07;9.35;;;;;;;18.15;100.00;100965.59;8275694;28;20068;-46
2022/08/31 03:21:32;;;;;;;12.48;7.63;;;;;;;18.22;100.00;100963.84;8264372;28;20053;-47
2022/08/31 03:25:33;;;;;;;14.20;7.55;;;;;;;18.32;100.00;100972.69;8263415;28;20559;-46
2022/08/31 03:29:33;;;;;;;11.15;8.48;;;;;;;18.22;100.00;100975.66;8262156;28;20035;-47
2022/08/31 03:33:34;;;;;;;13.52;8.68;;;;;;;17.93;100.00;100960.91;8262155;28;20096;-47
2022/08/31 03:37:34;;;;;;;20.15;9.05;;;;;;;17.83;100.00;100954.78;8260480;28;20030;-47
2022/08/31 03:41:35;;;;;;;12.13;8.38;;;;;;;17.59;100.00;100947.50;8282101;28;20038;-47
2022/08/31 03:45:37;;;;;;;14.80;9.30;;;;;;;17.56;100.00;100950.59;8263773;28;20175;-46
2022/08/31 03:49:37;;;;;;;23.65;9.93;;;;;;;17.60;100.00;100951.97;8283391;28;20439;-47
2022/08/31 03:53:38;;;;;;;14.15;9.73;;;;;;;17.52;100.00;100946.50;8292766;28;20447;-47
2022/08/31 03:57:38;;;;;;;15.98;10.35;;;;;;;17.53;100.00;100934.53;8291862;28;20033;-49
2022/08/31 04:01:39;;;;;;;15.35;10.50;;;;;;;17.54;100.00;100936.25;8265531;28;20045;-46
2022/08/31 04:05:43;;;;;;;19.60;11.10;;;;;;;17.72;100.00;100939.63;8275104;28;20567;-48
2022/08/31 04:09:44;;;;;;;18.50;10.65;;;;;;;17.68;100.00;100926.47;8265242;28;20141;-47
2022/08/31 04:13:45;;;;;;;14.52;10.50;;;;;;;17.64;100.00;100925.97;8265891;28;20050;-47
2022/08/31 04:17:46;;;;;;;15.30;10.93;;;;;;;17.73;100.00;100924.06;8264612;28;20088;-47
2022/08/31 04:21:48;;;;;;;18.30;11.25;;;;;;;17.92;100.00;100929.09;8269250;28;20041;-47
2022/08/31 04:25:48;;;;;;;15.48;11.05;;;;;;;17.94;100.00;100932.50;8276444;28;20037;-47
2022/08/31 04:29:49;;;;;;;15.02;11.45;;;;;;;17.96;100.00;100938.69;8284902;28;20045;-46
2022/08/31 04:33:50;;;;;;;16.58;11.32;;;;;;;17.92;100.00;100938.16;8277515;28;20034;-47
2022/08/31 04:37:50;;;;;;;16.83;11.52;;;;;;;18.10;100.00;100941.50;8282156;28;20034;-48
2022/08/31 04:41:50;;;;;;;13.77;9.90;;;;;;;17.95;100.00;100940.53;8294268;28;20034;-47
2022/08/31 04:45:51;;;;;;;16.48;11.60;;;;;;;17.79;100.00;100935.16;8285500;28;20033;-47
2022/08/31 04:49:51;;;;;;;19.35;12.27;;;;;;;17.88;100.00;100942.28;8279896;28;20034;-46
2022/08/31 04:53:53;;;;;;;15.98;12.10;;;;;;;18.08;100.00;100938.09;8279340;28;20034;-48
2022/08/31 04:57:53;;;;;;;17.83;12.43;;;;;;;18.03;100.00;100942.41;8284088;28;20041;-47
2022/08/31 05:01:54;;;;;;;16.77;12.48;;;;;;;17.84;100.00;100949.13;8283476;28;20053;-47
2022/08/31 05:05:55;;;;;;;20.52;13.27;;;;;;;17.79;100.00;100946.09;8276187;28;20041;-49
2022/08/31 05:09:56;;;;;;;16.70;12.98;;;;;;;17.85;100.00;100948.13;8269547;28;20096;-47
2022/08/31 05:13:57;;;;;;;22.88;13.88;;;;;;;17.83;100.00;100941.09;8253837;28;20050;-47
2022/08/31 05:17:58;;;;;;;23.00;13.75;;;;;;;17.82;100.00;100951.22;8261404;28;20088;-49
2022/08/31 05:21:59;;;;;;;19.67;13.38;;;;;;;17.80;100.00;100947.78;8285876;28;20195;-47
2022/08/31 05:25:59;;;;;;;21.27;12.93;;;;;;;17.80;100.00;100946.94;8257289;28;20038;-47
2022/08/31 05:30:00;;;;;;;18.55;12.95;;;;;;;17.86;100.00;100949.81;8265904;28;20033;-48
2022/08/31 05:34:01;;;;;;;19.40;12.48;;;;;;;17.78;100.00;100949.00;8268104;28;20052;-47
2022/08/31 05:38:01;;;;;;;18.65;13.13;;;;;;;17.91;100.00;100955.63;8276133;28;20112;-47
2022/08/31 05:42:02;;;;;;;23.08;12.13;;;;;;;17.84;100.00;100951.03;8275621;28;20395;-49
2022/08/31 05:46:07;;;;;;;20.05;12.55;;;;;;;17.73;100.00;100960.47;8266316;28;20542;-47
2022/08/31 05:50:08;;;;;;;21.48;12.80;;;;;;;17.74;100.00;100959.44;8272017;28;20029;-47
2022/08/31 05:54:09;;;;;;;20.50;13.43;;;;;;;17.68;100.00;100957.41;8267029;28;20506;-49
2022/08/31 05:58:11;;;;;;;21.52;13.48;;;;;;;17.66;100.00;100962.22;8272472;28;20046;-47
2022/08/31 06:02:11;;;;;;;21.30;14.77;;;;;;;17.67;100.00;100972.09;8269651;28;20120;-47
2022/08/31 06:06:12;;;;;;;24.10;15.68;;;;;;;17.68;100.00;100971.06;8276067;28;20061;-47
2022/08/31 06:10:14;;;;;;;23.83;15.18;;;;;;;17.73;100.00;100974.16;8262041;28;20042;-47
2022/08/31 06:14:15;;;;;;;24.48;15.85;;;;;;;18.00;100.00;100976.44;8262321;28;20353;-47
2022/08/31 06:18:15;;;;;;;24.60;15.30;;;;;;;18.04;100.00;100972.31;8262561;28;20665;-47
2022/08/31 06:22:17;;;;;;;18.77;13.50;;;;;;;17.89;100.00;100974.09;8266434;28;20045;-47
2022/08/31 06:26:20;;;;;;;21.98;14.32;;;;;;;17.93;100.00;100969.97;8259957;28;20045;-47
2022/08/31 06:30:25;;;;;;;22.75;14.38;;;;;;;17.94;100.00;100979.03;8267210;28;20037;-48
2022/08/31 06:34:27;;;;;;;20.88;14.05;;;;;;;17.92;100.00;100981.94;8260432;28;20172;-47
2022/08/31 06:38:28;;;;;;;22.27;13.95;;;;;;;17.96;100.00;100980.53;8268099;28;20046;-47
2022/08/31 06:42:28;;;;;;;20.65;13.88;;;;;;;18.03;100.00;100984.31;8271474;28;20045;-47
2022/08/31 06:46:31;;;;;;;25.35;14.57;;;;;;;18.05;100.00;100978.66;8265878;28;20067;-47
2022/08/31 06:50:32;;;;;;;19.98;14.52;;;;;;;18.19;100.00;100977.88;8275193;28;20034;-47
2022/08/31 06:54:34;;;;;;;22.20;14.35;;;;;;;18.24;100.00;100981.78;8275787;28;20504;-48
2022/08/31 06:58:34;;;;;;;23.02;13.70;;;;;;;18.35;100.00;100981.41;8282599;28;20049;-47
2022/08/31 07:02:35;;;;;;;25.48;14.40;;;;;;;18.54;100.00;100985.63;8269894;28;20046;-46
2022/08/31 07:06:38;;;;;;;24.67;14.40;;;;;;;18.72;100.00;100986.16;8266487;28;20142;-47
2022/08/31 07:10:38;;;;;;;26.08;15.63;;;;;;;18.68;100.00;100993.03;8256525;28;20526;-47
2022/08/31 07:14:39;;;;;;;28.80;15.20;;;;;;;18.80;100.00;100997.06;8263699;28;20209;-47
2022/08/31 07:18:40;;;;;;;21.15;14.00;;;;;;;18.81;100.00;100998.78;8272798;28;20586;-46
2022/08/31 07:22:41;;;;;;;23.20;13.48;;;;;;;18.87;100.00;101004.38;8289743;28;20411;-47
2022/08/31 07:26:45;;;;;;;29.05;15.20;;;;;;;18.98;100.00;100995.75;8267115;28;20061;-47
2022/08/31 07:30:48;;;;;;;23.05;14.20;;;;;;;19.08;100.00;101004.56;8272230;28;20082;-47
2022/08/31 07:34:49;;;;;;;23.37;14.40;;;;;;;19.22;100.00;101014.72;8259317;28;20494;-47
2022/08/31 07:43:11;;;;;;;25.02;14.15;;;;;;;19.41;100.00;101022.50;8285268;28;20121;-47
2022/08/31 07:47:12;;;;;;;21.63;14.30;;;;;;;19.52;100.00;101026.69;8285373;28;20038;-46
2022/08/31 07:51:16;;;;;;;20.80;14.60;;;;;;;19.73;100.00;101023.22;8283844;28;20050;-46
2022/08/31 07:55:18;;;;;;;22.48;15.05;;;;;;;19.83;100.00;101030.13;8258809;28;20448;-46
2022/08/31 07:59:20;;;;;;;19.55;13.55;;;;;;;19.87;100.00;101036.09;8263620;28;20697;-46
2022/08/31 08:03:21;;;;;;;25.48;14.43;;;;;;;20.15;100.00;101034.41;8260882;28;20475;-47
2022/08/31 08:07:21;;;;;;;17.95;13.60;;;;;;;20.27;100.00;101033.75;8257898;28;20097;-47
2022/08/31 08:11:22;;;;;;;22.10;13.80;;;;;;;20.61;100.00;101030.38;8260589;28;20048;-46
2022/08/31 08:15:23;;;;;;;19.60;13.52;;;;;;;20.80;100.00;101027.03;8264034;28;20451;-47
2022/08/31 08:19:24;;;;;;;21.05;13.98;;;;;;;20.78;100.00;101026.38;8271824;28;20132;-46
2022/08/31 08:23:24;;;;;;;20.48;12.20;;;;;;;20.84;100.00;101026.47;8274780;28;20046;-47
2022/08/31 08:27:25;;;;;;;19.42;12.43;;;;;;;20.94;100.00;101027.03;8291778;28;20037;-47
2022/08/31 08:31:27;;;;;;;21.38;14.00;;;;;;;21.12;100.00;101034.81;8261059;28;20092;-47
2022/08/31 08:35:29;;;;;;;20.95;12.55;;;;;;;21.19;100.00;101032.97;8257284;28;20403;-47
2022/08/31 08:39:30;;;;;;;20.55;13.55;;;;;;;21.47;100.00;101042.13;8265359;28;20046;-46
2022/08/31 08:43:35;;;;;;;17.17;12.02;;;;;;;21.55;100.00;101035.63;8287295;28;20108;-49
2022/08/31 08:47:36;;;;;;;23.65;12.45;;;;;;;21.68;100.00;101042.09;8284568;28;20486;-50
2022/08/31 08:51:37;;;;;;;16.92;10.05;;;;;;;21.65;98.41;101042.50;8288893;28;20042;-47
2022/08/31 08:55:41;;;;;;;15.20;10.90;;;;;;;21.91;98.55;101042.75;8284105;28;20041;-48
2022/08/31 08:59:44;;;;;;;18.73;10.52;;;;;;;21.71;96.76;101049.94;8260407;28;20039;-46
2022/08/31 09:03:58;;;;;;;11.77;9.32;;;;;;;21.76;93.38;101044.75;8290591;28;20030;-56
2022/08/31 09:08:27;;;;;;;13.82;9.15;;;;;;;21.87;92.42;101052.47;8289769;28;20030;-47
2022/08/31 09:12:56;;;;;;;20.00;13.00;;;;;;;22.29;97.25;101049.53;8281060;28;20043;-46
2022/08/31 09:17:08;;;;;;;14.80;10.57;;;;;;;22.69;93.41;101054.22;8271696;28;20518;-47
2022/08/31 09:21:28;;;;;;;18.50;10.27;;;;;;;22.65;92.48;101052.94;8270244;28;20057;-49
2022/08/31 09:25:34;;;;;;;15.32;11.15;;;;;;;22.54;89.27;101056.28;8287137;28;20215;-47
2022/08/31 09:29:42;;;;;;;18.17;11.60;;;;;;;22.59;89.16;101053.75;8291442;28;20045;-47
2022/08/31 09:33:49;;;;;;;19.45;12.73;;;;;;;22.94;92.05;101051.78;8290254;28;20034;-47
2022/08/31 09:38:09;;;;;;;17.83;13.38;;;;;;;23.25;92.13;101048.47;8292201;28;20125;-47
2022/08/31 09:42:17;;;;;;;22.20;13.50;;;;;;;23.49;91.70;101059.78;8289232;28;20435;-47
2022/08/31 09:46:26;;;;;;;23.10;13.25;;;;;;;24.17;87.70;101055.72;8286924;28;20574;-47
2022/08/31 09:50:44;;;;;;;21.85;16.45;;;;;;;26.75;74.29;101060.75;8288522;28;20034;-47
2022/08/31 09:55:26;;;;;;;20.85;14.85;;;;;;;27.74;72.99;101058.22;8287996;28;20084;-47
2022/08/31 09:59:32;;;;;;;16.35;13.52;;;;;;;26.67;73.45;101064.69;8290645;28;20072;-47
2022/08/31 10:04:14;;;;;;;20.35;16.33;;;;;;;26.39;73.90;101069.91;8288626;28;20096;-47
2022/08/31 10:08:45;;;;;;;21.35;18.88;;;;;;;24.91;79.62;101062.50;8288278;28;20045;-48
2022/08/31 10:12:54;;;;;;;25.50;21.73;;;;;;;25.14;77.21;101054.50;8286851;28;20034;-47
2022/08/31 10:17:01;;;;;;;24.33;20.25;;;;;;;26.06;74.48;101055.53;8289788;28;20038;-47
2022/08/31 10:21:10;;;;;;;23.90;20.23;;;;;;;25.93;72.97;101057.53;8262652;28;20050;-48
2022/08/31 10:25:39;;;;;;;19.88;16.05;;;;;;;25.74;72.12;101056.63;8261597;28;20046;-47
2022/08/31 10:29:48;;;;;;;15.38;12.07;;;;;;;25.00;74.20;101058.41;8266459;28;20145;-48
2022/08/31 10:35:04;;;;;;;16.27;12.52;;;;;;;24.18;78.71;101051.91;8263206;28;20074;-48
2022/08/31 10:38:33;;;;;;;15.82;11.95;;;;;;;24.19;78.89;101045.31;8279815;28;20054;-47
2022/08/31 10:42:38;;;;;;;14.95;12.75;;;;;;;24.47;75.98;101041.19;8291996;28;20038;-47
2022/08/31 10:46:38;;;;;;;14.45;11.60;;;;;;;24.42;76.21;101037.34;8302201;28;20046;-48
2022/08/31 10:50:48;;;;;;;14.63;12.68;;;;;;;24.31;77.77;101049.09;8282086;28;20042;-47
2022/08/31 10:55:05;;;;;;;17.90;12.25;;;;;;;24.01;78.22;101050.66;8272165;28;20096;-47
2022/08/31 10:59:18;;;;;;;17.25;11.10;;;;;;;24.04;77.92;101055.75;8287730;28;20049;-52
2022/08/31 11:03:58;;;;;;;15.48;9.65;;;;;;;24.07;75.42;101047.03;8289655;28;20042;-49
2022/08/31 11:08:23;;;;;;;11.73;7.15;;;;;;;24.18;72.93;101054.66;8296022;28;20061;-48
2022/08/31 11:12:32;;;;;;;9.35;6.18;;;;;;;24.63;70.20;101050.88;8295884;28;20034;-53
2022/08/31 11:17:12;;;;;;;8.85;5.57;;;;;;;24.33;71.66;101046.94;8286369;28;20507;-50
2022/08/31 11:21:52;;;;;;;9.88;5.90;;;;;;;24.53;70.59;101047.75;8260615;28;20046;-52
2022/08/31 11:26:32;;;;;;;7.97;6.15;;;;;;;24.44;70.74;101046.28;8291642;28;20459;-51
2022/08/31 11:30:36;;;;;;;7.70;5.07;;;;;;;24.66;70.87;101044.97;8278940;28;20042;-51
2022/08/31 11:34:46;;;;;;;8.65;7.68;;;;;;;24.64;71.50;101041.56;8262498;28;20031;-50
2022/08/31 11:38:53;;;;;;;10.57;8.10;;;;;;;24.67;71.26;101035.63;8263370;28;20042;-52
2022/08/31 11:42:56;;;;;;;11.13;7.88;;;;;;;25.02;69.36;101034.13;8292811;28;20038;-50
2022/08/31 11:47:33;;;;;;;11.40;8.18;;;;;;;25.04;69.90;101026.47;8282555;28;20061;-51
2022/08/31 11:55:55;;;;;;;10.43;7.78;;;;;;;25.51;68.53;101023.19;8407080;27;20800;-50
2022/08/31 11:59:56;;;;;;;13.00;7.60;;;;;;;25.98;67.91;101019.78;8417564;28;20036;-49
2022/08/31 12:04:05;;;;;;;11.63;6.43;;;;;;;27.12;64.10;101023.53;8419507;28;20033;-49
2022/08/31 12:08:10;;;;;;;8.32;6.78;;;;;;;27.62;61.35;101024.03;8418839;28;20098;-48
2022/08/31 12:12:42;;;;;;;9.73;6.93;;;;;;;27.31;61.78;101011.28;8418639;28;20040;-51
2022/08/31 12:17:20;;;;;;;8.77;6.68;;;;;;;27.04;61.98;101006.34;8417632;28;20465;-52
2022/08/31 12:27:37;;;;;;;7.88;5.25;;;;;;;27.34;61.34;100998.84;8366929;28;20037;-47
2022/08/31 12:32:04;;;;;;;9.82;5.60;;;;;;;27.30;61.83;100998.50;8412525;28;20501;-48
2022/08/31 12:36:27;;;;;;;6.85;3.95;;;;;;;27.09;59.90;100984.25;8375669;28;20037;-50
2022/08/31 12:40:48;;;;;;;6.57;4.07;;;;;;;27.09;59.49;100989.81;8365028;28;20068;-48
2022/08/31 12:45:09;;;;;;;4.28;3.45;;;;;;;27.40;57.76;100982.09;8385669;28;20700;-48
2022/08/31 12:50:09;;;;;;;6.90;4.43;;;;;;;27.41;58.08;100982.94;8377495;28;20119;-50
2022/08/31 12:59:38;;;;;;;8.25;5.10;;;;;;;26.87;60.20;100963.66;8394471;27;20474;-49
2022/08/31 13:04:05;;;;;;;6.03;4.85;;;;;;;26.07;62.11;100979.59;8381891;28;20114;-49
2022/08/31 13:08:32;;;;;;;7.93;5.07;;;;;;;25.87;62.12;100973.41;8351911;28;20034;-50
2022/08/31 13:12:56;;;;;;;7.43;4.90;;;;;;;25.87;64.21;100967.88;8381068;28;20033;-51
2022/08/31 13:17:17;;;;;;;7.65;4.13;;;;;;;26.00;61.53;100964.13;8386076;28;20048;-49
2022/08/31 13:21:39;;;;;;;6.47;4.32;;;;;;;25.76;61.40;100965.84;8385413;28;20040;-51
2022/08/31 13:26:23;;;;;;;8.90;5.07;;;;;;;26.06;60.27;100961.28;8382058;28;20032;-50
2022/08/31 13:30:42;;;;;;;8.48;4.75;;;;;;;25.93;60.56;100958.63;8364004;28;20048;-48
2022/08/31 13:35:07;;;;;;;8.55;5.55;;;;;;;25.83;61.58;100944.44;8380224;28;20459;-51
2022/08/31 13:39:26;;;;;;;7.47;5.95;;;;;;;25.84;62.82;100951.69;8380242;28;20036;-50
2022/08/31 13:44:00;;;;;;;4.75;4.32;;;;;;;25.98;61.40;100936.63;8384625;28;20106;-50
2022/08/31 13:48:25;;;;;;;9.85;5.03;;;;;;;26.00;61.28;100942.81;8378999;28;20033;-48
2022/08/31 13:52:47;;;;;;;5.17;4.67;;;;;;;26.11;61.15;100942.06;8385225;28;20048;-47
2022/08/31 13:57:37;;;;;;;6.70;5.15;;;;;;;25.85;61.20;100942.28;8382670;28;20406;-47
2022/08/31 14:02:32;;;;;;;6.93;4.57;;;;;;;25.86;62.06;100952.28;8382668;28;20568;-48
2022/08/31 14:06:52;;;;;;;6.20;4.35;;;;;;;25.83;61.87;100938.91;8375187;28;20082;-48
2022/08/31 14:15:27;;;;;;;7.03;5.22;;;;;;;25.90;62.43;100939.69;8390304;27;20488;-49
2022/08/31 14:19:46;;;;;;;9.55;4.88;;;;;;;25.92;62.86;100931.97;8386355;28;20421;-47
2022/08/31 14:24:31;;;;;;;6.75;5.20;;;;;;;26.12;62.97;100935.41;8386318;28;20054;-47
2022/08/31 14:28:49;;;;;;;5.28;4.78;;;;;;;26.15;62.61;100937.72;8389432;28;20040;-48
2022/08/31 14:33:10;;;;;;;7.35;5.70;;;;;;;26.25;63.48;100923.28;8381668;28;20037;-48
2022/08/31 14:37:34;;;;;;;6.05;4.85;;;;;;;26.33;62.04;100928.53;8382446;28;20036;-48
2022/08/31 14:41:55;;;;;;;4.88;4.38;;;;;;;26.24;62.29;100922.47;8385643;28;20482;-48
2022/08/31 14:46:17;;;;;;;10.30;4.18;;;;;;;26.12;60.45;100920.69;8385599;28;20029;-48
2022/08/31 14:50:38;;;;;;;6.03;4.28;;;;;;;26.23;60.38;100922.69;8390233;28;20387;-47
2022/08/31 14:55:01;;;;;;;7.82;4.15;;;;;;;26.20;62.28;100918.44;8391032;28;20405;-50
2022/08/31 14:59:19;;;;;;;5.93;4.60;;;;;;;26.13;61.90;100917.69;8388928;28;20043;-50
2022/08/31 15:03:41;;;;;;;6.22;4.22;;;;;;;26.26;62.22;100911.97;8385884;28;20070;-51
2022/08/31 15:08:01;;;;;;;5.88;4.30;;;;;;;26.35;60.52;100915.28;8377265;28;20241;-48
2022/08/31 15:12:21;;;;;;;6.20;3.75;;;;;;;26.45;58.75;100916.44;8387183;28;20047;-50
2022/08/31 15:16:41;;;;;;;5.95;3.88;;;;;;;26.41;59.40;100920.72;8381505;28;20044;-48
2022/08/31 15:21:03;;;;;;;5.45;4.05;;;;;;;26.35;60.25;100913.34;8381785;28;20036;-49
2022/08/31 15:25:25;;;;;;;6.57;3.70;;;;;;;26.15;60.03;100912.78;8387336;28;20113;-51
2022/08/31 15:29:45;;;;;;;11.00;3.85;;;;;;;26.11;59.05;100907.94;8359639;28;20453;-48
2022/08/31 15:34:06;;;;;;;5.07;3.85;;;;;;;25.98;59.63;100905.31;8369344;28;20037;-48
2022/08/31 15:38:29;;;;;;;4.32;3.67;;;;;;;26.05;60.53;100908.84;8384667;28;20169;-49
2022/08/31 15:42:49;;;;;;;4.05;3.65;;;;;;;25.75;60.51;100908.75;8387542;28;20040;-47
2022/08/31 15:51:33;;;;;;;4.88;3.97;;;;;;;25.87;61.39;100890.28;8379575;28;20048;-49
2022/08/31 15:55:52;;;;;;;6.00;3.80;;;;;;;25.71;60.31;100895.56;8390235;28;20060;-50
2022/08/31 16:00:13;;;;;;;5.10;3.50;;;;;;;25.66;60.45;100899.03;8355834;28;20391;-48
2022/08/31 16:04:37;;;;;;;6.68;4.03;;;;;;;25.54;61.09;100902.78;8379135;28;20120;-50
2022/08/31 16:08:54;;;;;;;5.35;4.15;;;;;;;25.42;61.32;100897.16;8386953;28;20163;-48
2022/08/31 16:13:16;;;;;;;6.78;3.83;;;;;;;25.39;61.39;100883.75;8388550;28;20059;-48
2022/08/31 16:17:42;;;;;;;4.65;3.40;;;;;;;25.48;60.79;100885.16;8349433;28;20037;-48
2022/08/31 16:22:06;;;;;;;6.10;3.80;;;;;;;25.55;60.57;100880.38;8358035;28;20029;-49
2022/08/31 16:26:26;;;;;;;5.77;3.87;;;;;;;25.52;60.75;100880.84;8359077;28;20035;-49
2022/08/31 16:30:46;;;;;;;4.00;3.60;;;;;;;25.37;60.72;100877.59;8360735;28;20411;-48
2022/08/31 16:35:08;;;;;;;5.32;3.75;;;;;;;25.45;60.10;100869.00;8355007;28;20044;-50
2022/08/31 16:39:28;;;;;;;4.03;3.33;;;;;;;25.39;60.35;100875.44;8358896;28;20037;-49
2022/08/31 16:43:48;;;;;;;3.85;3.53;;;;;;;25.37;60.42;100872.06;8358451;28;20041;-51
2022/08/31 16:52:31;;;;;;;4.32;3.75;;;;;;;25.27;60.92;100876.38;8351266;28;20048;-49
2022/08/31 16:56:50;;;;;;;4.88;3.90;;;;;;;25.11;61.01;100869.50;8384644;28;20406;-49
2022/08/31 17:01:11;;;;;;;5.53;3.95;;;;;;;25.11;61.88;100871.44;8379913;28;20049;-49
2022/08/31 17:05:32;;;;;;;4.13;3.60;;;;;;;25.12;61.76;100871.19;8380277;28;20225;-50
2022/08/31 17:09:54;;;;;;;4.90;4.25;;;;;;;25.02;62.43;100874.50;8377372;28;20159;-47
2022/08/31 17:14:14;;;;;;;4.78;4.07;;;;;;;24.94;62.41;100871.13;8379473;28;20120;-51
2022/08/31 17:18:39;;;;;;;6.85;4.13;;;;;;;24.98;62.30;100877.94;8384699;28;20491;-47
2022/08/31 17:22:55;;;;;;;6.30;3.75;;;;;;;24.95;63.13;100878.38;8389341;28;20024;-49
2022/08/31 17:27:16;;;;;;;3.85;3.50;;;;;;;24.83;64.14;100869.13;8385703;28;20115;-48
2022/08/31 17:31:40;;;;;;;8.13;3.90;;;;;;;24.80;62.68;100869.56;8382360;28;20041;-49
2022/08/31 17:36:01;;;;;;;5.95;3.58;;;;;;;24.74;63.22;100870.47;8382764;28;20033;-48
2022/08/31 17:40:21;;;;;;;5.90;4.03;;;;;;;24.73;62.34;100880.66;8383449;28;20032;-50
2022/08/31 17:44:43;;;;;;;7.15;3.72;;;;;;;24.71;62.35;100879.22;8384076;28;20115;-48
2022/08/31 17:49:04;;;;;;;7.47;4.10;;;;;;;24.65;63.32;100882.88;8407587;28;20127;-48
2022/08/31 17:53:22;;;;;;;4.55;3.90;;;;;;;24.53;63.58;100884.59;8379663;28;20040;-48
2022/08/31 17:57:47;;;;;;;4.55;4.13;;;;;;;24.50;64.58;100885.91;8376999;28;20048;-47
2022/08/31 18:02:07;;;;;;;5.53;3.90;;;;;;;24.48;64.98;100889.94;8351954;28;20039;-48
2022/08/31 18:06:27;;;;;;;3.90;3.60;;;;;;;24.35;66.37;100887.25;8355791;28;20041;-50
2022/08/31 18:10:48;;;;;;;5.97;4.15;;;;;;;24.25;66.02;100886.91;8353309;28;20082;-48
2022/08/31 18:15:07;;;;;;;8.80;3.92;;;;;;;24.26;66.84;100885.81;8360993;28;20099;-48
2022/08/31 18:19:30;;;;;;;4.53;3.60;;;;;;;23.92;70.25;100897.19;8378595;28;20099;-51
2022/08/31 18:23:49;;;;;;;5.85;3.97;;;;;;;23.81;69.97;100898.72;8354184;28;20046;-48
2022/08/31 18:28:11;;;;;;;4.30;3.80;;;;;;;23.69;70.19;100905.16;8355787;28;20029;-48
2022/08/31 18:32:35;;;;;;;5.07;3.70;;;;;;;23.59;70.53;100910.25;8356919;28;20049;-51
2022/08/31 18:36:54;;;;;;;4.72;3.30;;;;;;;23.46;71.36;100913.03;8358149;28;20041;-48
2022/08/31 18:45:35;;;;;;;4.38;3.70;;;;;;;23.26;71.46;100923.25;8357321;28;20094;-51
2022/08/31 18:49:59;;;;;;;6.30;3.75;;;;;;;23.08;74.51;100919.19;8363483;28;20061;-50
2022/08/31 18:54:18;;;;;;;4.65;4.25;;;;;;;23.06;76.41;100939.78;8365470;28;20093;-48
2022/08/31 18:58:40;;;;;;;4.70;4.20;;;;;;;22.88;79.54;100937.59;8363491;28;20128;-51
2022/08/31 19:02:59;;;;;;;6.93;4.40;;;;;;;22.65;79.38;100937.16;8362382;28;20036;-51
2022/08/31 19:07:23;;;;;;;6.00;4.53;;;;;;;22.88;75.76;100940.38;8365412;28;20486;-51
2022/08/31 19:11:50;;;;;;;7.63;4.20;;;;;;;22.81;77.84;100936.75;8360397;28;20495;-51
2022/08/31 19:16:03;;;;;;;8.35;4.57;;;;;;;22.68;78.90;100942.25;8356939;28;20433;-51
2022/08/31 19:20:24;;;;;;;5.43;4.60;;;;;;;22.43;81.03;100943.84;8358540;28;20124;-51
2022/08/31 19:24:46;;;;;;;6.68;4.85;;;;;;;22.21;83.39;100950.56;8356848;28;20457;-50
2022/08/31 19:29:07;;;;;;;8.13;5.00;;;;;;;21.97;84.47;100948.31;8363382;28;20510;-51
2022/08/31 19:33:26;;;;;;;5.82;4.15;;;;;;;21.86;82.72;100957.13;8382225;28;20036;-48
2022/08/31 19:37:50;;;;;;;10.88;3.83;;;;;;;21.97;79.83;100947.44;8386379;28;20402;-48
2022/08/31 19:42:20;;;;;;;8.57;3.05;;;;;;;22.13;75.43;100947.09;8364345;28;20056;-51
2022/08/31 19:46:40;;;;;;;6.55;2.65;;;;;;;22.22;74.47;100952.25;8362368;28;20037;-52
2022/08/31 19:51:01;;;;;;;3.35;2.70;;;;;;;22.29;73.12;100946.78;8353739;28;20135;-49